This is the latest recevied weather packets stored in our database for station/object SP2FH-13. If no packets are shown the sender has not sent any weather packets the latest 10 day(s).
| Time | Temp. | Humidity | Pressure | Rain* | Wind** | Luminosity | Snow |
|---|---|---|---|---|---|---|---|
| 1778425422 | 19.44° C | 36% | 1001.9 hPa | - | - | 285 W/m² | - |
| 1778425122 | 19.44° C | 36% | 1001.9 hPa | - | - | 328 W/m² | - |
| 1778424820 | 18.89° C | 37% | 1001.9 hPa | - | - | 346 W/m² | - |
| 1778424518 | 18.89° C | 36% | 1001.9 hPa | - | - | 302 W/m² | - |
| 1778424218 | 19.44° C | 34% | 1001.9 hPa | - | - | 295 W/m² | - |
| 1778423917 | 19.44° C | 37% | 1002 hPa | - | - | 309 W/m² | - |
| 1778423615 | 19.44° C | 36% | 1002.1 hPa | - | - | 341 W/m² | - |
| 1778423314 | 19.44° C | 35% | 1002.1 hPa | - | - | 335 W/m² | - |
| 1778423014 | 19.44° C | 34% | 1002.3 hPa | - | - | 375 W/m² | - |
| 1778422712 | 19.44° C | 35% | 1002.3 hPa | - | - | 396 W/m² | - |
| 1778422411 | 18.89° C | 36% | 1002.4 hPa | - | - | 448 W/m² | - |
| 1778422111 | 20° C | 35% | 1002.5 hPa | - | - | 466 W/m² | - |
| 1778421809 | 19.44° C | 37% | 1002.5 hPa | - | - | 485 W/m² | - |
| 1778421507 | 19.44° C | 37% | 1002.6 hPa | - | - | 491 W/m² | - |
| 1778421206 | 19.44° C | 35% | 1002.6 hPa | - | - | 508 W/m² | - |
| 1778420905 | 19.44° C | 37% | 1002.7 hPa | - | - | 521 W/m² | - |
| 1778420604 | 18.89° C | 36% | 1002.8 hPa | - | - | 511 W/m² | - |
| 1778420304 | 19.44° C | 35% | 1002.9 hPa | - | - | 481 W/m² | - |
| 1778420002 | 18.89° C | 36% | 1003 hPa | - | - | 544 W/m² | - |
| 1778419701 | 18.33° C | 37% | 1003.1 hPa | - | - | 554 W/m² | - |
| 1778419401 | 18.89° C | 37% | 1003.1 hPa | - | - | 569 W/m² | - |
| 1778419099 | 18.89° C | 36% | 1003.1 hPa | - | - | 585 W/m² | - |
| 1778418798 | 19.44° C | 35% | 1003.1 hPa | - | - | 594 W/m² | - |
| 1778418497 | 18.89° C | 38% | 1003.1 hPa | - | - | 604 W/m² | - |
| 1778418195 | 18.89° C | 36% | 1003.2 hPa | - | - | 612 W/m² | - |
* Rain since midnight (hover to see other rain measurements)
** Current wind speed in m/s (hover to see current wind gust speed)